createdAt,value
2022-08-01T00:01:53.523Z,100386.34
2022-08-01T00:04:19.705Z,100390.38
2022-08-01T00:06:45.869Z,100394.44
2022-08-01T00:09:12.348Z,100393.91
2022-08-01T00:11:56.255Z,100390.13
2022-08-01T00:14:32.142Z,100393.41
2022-08-01T00:17:02.444Z,100391.72
2022-08-01T00:19:31.769Z,100395.06
2022-08-01T00:21:57.925Z,100385.69
2022-08-01T00:24:24.385Z,100390.31
2022-08-01T00:26:50.546Z,100394.94
2022-08-01T00:30:12.271Z,100397.19
2022-08-01T00:32:03.344Z,100395.75
2022-08-01T00:34:29.894Z,100399.13
2022-08-01T00:36:56.033Z,100397.47
2022-08-01T00:39:22.176Z,100384.31
2022-08-01T00:41:48.322Z,100382.06
2022-08-01T00:44:25.722Z,100388.53
2022-08-01T00:46:51.885Z,100389.13
2022-08-01T00:49:18.084Z,100383.34
2022-08-01T00:51:44.270Z,100393.84
2022-08-01T00:54:10.760Z,100403.66
2022-08-01T00:56:39.458Z,100400.56
2022-08-01T00:59:06.812Z,100399.97
2022-08-01T01:01:39.454Z,100411.31
2022-08-01T01:04:08.340Z,100413.03
2022-08-01T01:07:04.004Z,100395.91
2022-08-01T01:10:31.786Z,100393.84
2022-08-01T01:13:07.674Z,100396.44
2022-08-01T01:15:55.280Z,100401.25
2022-08-01T01:18:36.897Z,100406.31
2022-08-01T01:21:19.163Z,100405.72
2022-08-01T01:24:19.795Z,100404.94
2022-08-01T01:26:55.857Z,100404.41
2022-08-01T01:29:29.265Z,100400.09
2022-08-01T01:32:13.973Z,100394.69
2022-08-01T01:34:44.821Z,100396.88
2022-08-01T01:37:16.914Z,100395.47
2022-08-01T01:39:45.399Z,100399.28
2022-08-01T01:42:22.011Z,100391.25
2022-08-01T01:44:51.056Z,100391.94
2022-08-01T01:47:18.109Z,100388.28
2022-08-01T01:49:48.192Z,100382.66
2022-08-01T01:52:18.172Z,100389.38
2022-08-01T01:54:49.778Z,100383.53
2022-08-01T01:57:16.892Z,100391.06
2022-08-01T01:59:45.151Z,100390.28
2022-08-01T02:02:13.905Z,100386.78
2022-08-01T02:04:43.731Z,100389.50
2022-08-01T02:07:13.396Z,100380.16
2022-08-01T02:09:43.098Z,100387.28
2022-08-01T02:12:13.305Z,100391.28
2022-08-01T02:14:43.099Z,100391.03
2022-08-01T02:17:16.415Z,100392.91
2022-08-01T02:19:42.895Z,100396.50
2022-08-01T02:22:11.207Z,100386.69
2022-08-01T02:24:46.535Z,100392.34
2022-08-01T02:27:15.580Z,100389.22
2022-08-01T02:29:53.572Z,100379.66
2022-08-01T02:32:26.644Z,100388.22
2022-08-01T02:34:57.343Z,100386.97
2022-08-01T02:37:25.002Z,100383.41
2022-08-01T02:39:55.164Z,100395.31
2022-08-01T02:42:25.064Z,100390.31
2022-08-01T02:44:53.409Z,100390.13
2022-08-01T02:47:22.471Z,100382.84
2022-08-01T02:49:53.181Z,100393.50
2022-08-01T02:52:21.948Z,100388.06
2022-08-01T02:54:50.754Z,100395.38
2022-08-01T02:57:19.055Z,100398.53
2022-08-01T02:59:49.035Z,100404.59
2022-08-01T03:02:16.310Z,100403.13
2022-08-01T03:04:43.841Z,100409.41
2022-08-01T03:07:11.783Z,100414.00
2022-08-01T03:09:41.688Z,100409.63
2022-08-01T03:12:12.769Z,100416.94
2022-08-01T03:14:43.162Z,100417.34
2022-08-01T03:17:10.116Z,100420.03
2022-08-01T03:19:39.032Z,100422.94
2022-08-01T03:22:09.229Z,100428.38
2022-08-01T03:24:37.951Z,100421.69
2022-08-01T03:27:05.306Z,100426.69
2022-08-01T03:29:33.498Z,100426.91
2022-08-01T03:32:01.679Z,100426.69
2022-08-01T03:34:28.589Z,100421.47
2022-08-01T03:37:06.821Z,100419.59
2022-08-01T03:39:38.061Z,100418.78
2022-08-01T03:42:15.238Z,100425.66
2022-08-01T03:44:42.398Z,100421.47
2022-08-01T03:47:11.370Z,100424.81
2022-08-01T03:49:42.931Z,100421.69
2022-08-01T03:52:10.441Z,100434.19
2022-08-01T03:54:41.342Z,100431.47
2022-08-01T03:57:08.614Z,100424.81
2022-08-01T03:59:47.321Z,100428.59
2022-08-01T04:02:15.927Z,100423.38
2022-08-01T04:04:42.537Z,100432.56
2022-08-01T04:07:32.923Z,100426.09
2022-08-01T04:09:59.216Z,100440.25
2022-08-01T04:12:25.712Z,100436.13
2022-08-01T04:14:52.270Z,100441.53
2022-08-01T04:17:18.433Z,100439.03
2022-08-01T04:19:45.849Z,100440.47
2022-08-01T04:22:14.634Z,100434.22
2022-08-01T04:24:43.391Z,100442.34
2022-08-01T04:27:15.467Z,100437.31
2022-08-01T04:29:43.325Z,100445.47
2022-08-01T04:32:13.210Z,100438.53
2022-08-01T04:34:42.607Z,100437.03
2022-08-01T04:37:12.283Z,100442.00
2022-08-01T04:39:50.253Z,100440.69
2022-08-01T04:42:17.516Z,100439.63
2022-08-01T04:44:52.455Z,100441.63
2022-08-01T04:47:19.799Z,100442.81
2022-08-01T04:49:48.829Z,100447.16
2022-08-01T04:52:19.728Z,100444.63
2022-08-01T04:54:47.961Z,100443.06
2022-08-01T04:57:14.380Z,100443.44
2022-08-01T04:59:44.743Z,100435.84
2022-08-01T05:02:17.424Z,100445.22
2022-08-01T05:04:44.530Z,100436.38
2022-08-01T05:07:11.503Z,100445.31
2022-08-01T05:09:38.458Z,100443.81
2022-08-01T05:12:06.917Z,100446.94
2022-08-01T05:14:34.155Z,100452.13
2022-08-01T05:17:04.123Z,100446.06
2022-08-01T05:19:34.434Z,100445.06
2022-08-01T05:22:01.846Z,100452.41
2022-08-01T05:24:31.151Z,100455.13
2022-08-01T05:26:59.577Z,100454.00
2022-08-01T05:29:27.799Z,100459.72
2022-08-01T05:31:54.901Z,100458.53
2022-08-01T05:34:21.855Z,100459.59
2022-08-01T05:36:48.315Z,100463.22
2022-08-01T05:39:14.846Z,100464.78
2022-08-01T05:41:41.561Z,100463.91
2022-08-01T05:44:08.370Z,100465.00
2022-08-01T05:46:35.227Z,100464.81
2022-08-01T05:49:02.938Z,100465.53
2022-08-01T05:51:29.665Z,100462.84
2022-08-01T05:53:56.681Z,100465.78
2022-08-01T05:56:23.410Z,100468.88
2022-08-01T05:58:50.557Z,100472.66
2022-08-01T06:01:17.420Z,100473.75
2022-08-01T06:03:43.581Z,100470.38
2022-08-01T06:06:09.811Z,100466.81
2022-08-01T06:08:35.994Z,100472.66
2022-08-01T06:11:02.440Z,100477.56
2022-08-01T06:13:28.654Z,100476.06
2022-08-01T06:15:54.794Z,100483.19
2022-08-01T06:18:21.574Z,100489.28
2022-08-01T06:20:47.990Z,100485.44
2022-08-01T06:23:31.696Z,100492.69
2022-08-01T06:25:59.605Z,100496.78
2022-08-01T06:28:25.922Z,100500.38
2022-08-01T06:30:52.111Z,100501.13
2022-08-01T06:33:18.334Z,100499.19
2022-08-01T06:35:44.615Z,100495.97
2022-08-01T06:38:10.889Z,100501.13
2022-08-01T06:40:37.162Z,100501.19
2022-08-01T06:43:03.341Z,100498.94
2022-08-01T06:45:29.486Z,100500.19
2022-08-01T06:47:55.682Z,100502.91
2022-08-01T06:50:21.868Z,100504.41
2022-08-01T06:52:48.074Z,100505.22
2022-08-01T06:55:14.695Z,100504.59
2022-08-01T06:57:48.326Z,100500.63
2022-08-01T07:00:15.012Z,100504.16
2022-08-01T07:02:42.155Z,100503.28
2022-08-01T07:05:08.726Z,100499.84
2022-08-01T07:07:34.909Z,100498.34
2022-08-01T07:10:01.054Z,100505.63
2022-08-01T07:12:27.265Z,100497.41
2022-08-01T07:14:53.424Z,100501.13
2022-08-01T07:17:21.569Z,100499.47
2022-08-01T07:19:48.375Z,100509.56
2022-08-01T07:22:20.961Z,100505.13
2022-08-01T07:24:49.776Z,100506.41
2022-08-01T07:27:23.946Z,100502.97
2022-08-01T07:29:50.608Z,100509.94
2022-08-01T07:32:16.765Z,100507.25
2022-08-01T07:34:44.465Z,100503.91
2022-08-01T07:37:10.614Z,100508.66
2022-08-01T07:39:36.785Z,100513.03
2022-08-01T07:42:13.371Z,100520.06
2022-08-01T07:44:39.813Z,100516.19
2022-08-01T07:47:06.432Z,100516.19
2022-08-01T07:49:37.476Z,100512.09
2022-08-01T07:52:05.949Z,100511.41
2022-08-01T07:54:34.419Z,100509.03
2022-08-01T07:57:02.523Z,100516.28
2022-08-01T07:59:28.756Z,100514.25
2022-08-01T08:01:54.996Z,100524.19
2022-08-01T08:04:21.206Z,100519.81
2022-08-01T08:06:48.714Z,100525.84
2022-08-01T08:09:16.187Z,100521.75
2022-08-01T08:11:47.971Z,100537.25
2022-08-01T08:14:14.562Z,100533.38
2022-08-01T08:16:40.749Z,100532.81
2022-08-01T08:19:06.939Z,100535.38
2022-08-01T08:21:33.104Z,100536.63
2022-08-01T08:24:18.034Z,100543.53
2022-08-01T08:26:44.415Z,100545.66
2022-08-01T08:29:10.565Z,100543.97
2022-08-01T08:31:50.758Z,100538.28
2022-08-01T08:34:18.597Z,100543.66
2022-08-01T08:36:47.734Z,100547.19
2022-08-01T08:39:14.339Z,100539.72
2022-08-01T08:41:40.558Z,100544.94
2022-08-01T08:44:10.393Z,100545.19
2022-08-01T08:46:45.779Z,100548.06
2022-08-01T08:49:12.944Z,100547.16
2022-08-01T08:51:40.961Z,100552.25
2022-08-01T08:54:08.382Z,100549.13
2022-08-01T08:56:36.418Z,100554.88
2022-08-01T08:59:03.948Z,100549.19
2022-08-01T09:01:33.661Z,100553.44
2022-08-01T09:04:00.544Z,100551.50
2022-08-01T09:06:26.775Z,100556.56
2022-08-01T09:08:53.921Z,100554.38
2022-08-01T09:11:23.041Z,100559.44
2022-08-01T09:14:08.786Z,100560.97
2022-08-01T09:16:36.017Z,100551.75
2022-08-01T09:19:39.597Z,100560.28
2022-08-01T09:22:06.066Z,100558.50
2022-08-01T09:24:33.902Z,100550.44
2022-08-01T09:27:00.652Z,100558.88
2022-08-01T09:29:37.625Z,100559.31
2022-08-01T09:32:06.413Z,100565.56
2022-08-01T09:34:34.011Z,100574.16
2022-08-01T09:37:02.944Z,100566.03
2022-08-01T09:39:37.502Z,100583.19
2022-08-01T09:42:20.959Z,100570.63
2022-08-01T09:44:55.424Z,100580.09
2022-08-01T09:47:23.382Z,100581.84
2022-08-01T09:49:59.555Z,100573.28
2022-08-01T09:52:28.807Z,100582.06
2022-08-01T09:55:00.778Z,100577.47
2022-08-01T09:57:29.121Z,100576.41
2022-08-01T09:59:59.945Z,100577.41
2022-08-01T10:02:34.178Z,100580.63
2022-08-01T10:05:07.408Z,100587.75
2022-08-01T10:07:43.185Z,100581.88
2022-08-01T10:10:15.673Z,100586.88
2022-08-01T10:12:44.437Z,100589.69
2022-08-01T10:15:14.930Z,100581.84
2022-08-01T10:17:51.062Z,100593.34
2022-08-01T10:20:29.860Z,100593.41
2022-08-01T10:23:02.223Z,100601.19
2022-08-01T10:25:42.759Z,100600.28
2022-08-01T10:28:23.630Z,100604.94
2022-08-01T10:30:53.139Z,100608.34
2022-08-01T10:33:50.559Z,100608.78
2022-08-01T10:36:09.828Z,100608.34
2022-08-01T10:38:37.209Z,100610.44
2022-08-01T10:41:05.999Z,100617.38
2022-08-01T10:43:33.076Z,100609.34
2022-08-01T10:46:02.017Z,100620.22
2022-08-01T10:48:43.991Z,100620.16
2022-08-01T10:51:18.117Z,100612.72
2022-08-01T10:53:54.367Z,100622.84
2022-08-01T10:56:26.760Z,100622.03
2022-08-01T10:59:06.564Z,100619.81
2022-08-01T11:01:38.283Z,100621.06
2022-08-01T11:04:15.553Z,100622.75
2022-08-01T11:06:54.920Z,100618.06
2022-08-01T11:09:24.900Z,100619.88
2022-08-01T11:12:13.095Z,100610.66
2022-08-01T11:15:10.055Z,100619.72
2022-08-01T11:17:49.968Z,100622.56
2022-08-01T11:20:32.564Z,100626.34
2022-08-01T11:23:02.249Z,100629.06
2022-08-01T11:26:04.030Z,100629.50
2022-08-01T11:28:36.808Z,100636.81
2022-08-01T11:31:11.937Z,100632.34
2022-08-01T11:33:46.098Z,100641.47
2022-08-01T11:36:13.041Z,100651.78
2022-08-01T11:38:49.969Z,100652.03
2022-08-01T11:41:18.304Z,100648.81
2022-08-01T11:43:57.529Z,100648.75
2022-08-01T11:47:09.172Z,100662.03
2022-08-01T11:49:40.523Z,100650.44
2022-08-01T21:10:33.141Z,100962.72
2022-08-01T21:13:07.752Z,100967.75
2022-08-01T21:15:57.492Z,100966.66
2022-08-01T21:18:38.951Z,100971.38
2022-08-01T21:21:10.473Z,100969.66
2022-08-01T21:24:05.814Z,100972.97
2022-08-01T21:26:35.983Z,100981.66
2022-08-01T21:29:07.426Z,100979.66
2022-08-01T21:31:40.800Z,100979.31
2022-08-01T21:34:08.010Z,100983.78
2022-08-01T21:36:35.932Z,100986.38
2022-08-01T21:39:07.461Z,100988.56
2022-08-01T21:41:56.205Z,100993.47
2022-08-01T21:44:20.131Z,100991.06
2022-08-01T21:46:48.293Z,100986.59
2022-08-01T21:49:14.578Z,100997.16
2022-08-01T21:51:45.767Z,100997.34
2022-08-01T21:54:29.532Z,100996.31
2022-08-01T21:57:12.328Z,101001.38
2022-08-01T22:00:05.784Z,100998.28
2022-08-01T22:02:43.774Z,100998.72
2022-08-01T22:05:12.141Z,101002.38
2022-08-01T22:07:46.211Z,101004.50
2022-08-01T22:10:17.739Z,101005.41
2022-08-01T22:12:45.065Z,101008.19
2022-08-01T22:15:12.450Z,101009.66
2022-08-01T22:17:39.176Z,101005.47
2022-08-01T22:20:06.923Z,101005.22
2022-08-01T22:22:50.866Z,101001.41
2022-08-01T22:25:19.824Z,100995.25
2022-08-01T22:28:06.383Z,100998.09
2022-08-01T22:30:34.876Z,101002.97
2022-08-01T22:33:07.247Z,101000.34
2022-08-01T22:35:45.029Z,101006.91
2022-08-01T22:38:11.170Z,101010.91
2022-08-01T22:40:42.681Z,101011.19
2022-08-01T22:43:18.218Z,101005.41
2022-08-01T22:45:55.568Z,101008.56
2022-08-01T22:48:34.247Z,101005.47
2022-08-01T22:51:20.184Z,101008.84
2022-08-01T22:53:55.493Z,101016.81
2022-08-01T22:56:22.435Z,101014.69
2022-08-01T22:58:48.730Z,101000.78
2022-08-01T23:01:21.747Z,101009.97
2022-08-01T23:03:50.845Z,101015.63
2022-08-01T23:06:24.008Z,101012.94
2022-08-01T23:08:50.915Z,101008.63
2022-08-01T23:11:20.303Z,101016.25
2022-08-01T23:13:47.211Z,101013.06
2022-08-01T23:16:17.374Z,101024.41
2022-08-01T23:18:46.055Z,101020.22
2022-08-01T23:21:13.468Z,101023.81
2022-08-01T23:23:40.351Z,101024.53
2022-08-01T23:26:07.509Z,101023.38
2022-08-01T23:28:33.825Z,101026.41
2022-08-01T23:31:01.419Z,101025.91
2022-08-01T23:33:27.567Z,101027.28
2022-08-01T23:35:55.373Z,101025.78
2022-08-01T23:38:21.534Z,101020.75
2022-08-01T23:40:47.694Z,101020.06
2022-08-01T23:43:16.921Z,101013.00
2022-08-01T23:46:02.446Z,101022.09
2022-08-01T23:48:30.523Z,101020.63
2022-08-01T23:50:56.685Z,101024.69
2022-08-01T23:53:23.763Z,101025.03
2022-08-01T23:55:49.945Z,101021.16
2022-08-01T23:58:16.360Z,101016.31
